Hlavní strana
METAR-TAF:

METAR-TAF

Letiště :

Culiacán, Mexiko

zeměpisná šířka: 24-49N, zeměpisná délka: 107-24W, výška: 39 m

Aktuální stav počasí

Zpráva byla vytvořena před 41 minutami, v 21:58 UTC
Jihojihozápadní vítr 5 kt
Teplota 30°C
Vlhkost vzduchu 25%
Tlak 1011 hPa
Viditelnost: 16.1 km
Zataženo ve výšce 25000 ft

METAR: MMCL 042158Z RTD 21005KT 10SM OVC250 30/08 A2984 RMK 8/007

Čas: 15:39 (22:39 UTC)

Předpověď počasí

Zpráva byla vytvořena před 5 hodinami a 37 minutami, v 17:02 UTC
Předpověď platná od 04 v 18 UTC do 05 v 18 UTC
Západojihozápadní vítr 10 kt
Viditelnost: 10 km
Oblačno až skoro zataženo ve výšce 25000 ft
Změna
od 05 v 02 UTC do 05 v 03 UTC
Severní vítr kt
Polojasno ve výšce 12000 ft
Zataženo ve výšce 25000 ft
Od 05 v 1800 UTC
Jihozápadní vítr 10 kt
Viditelnost: 10 km
Oblačno až skoro zataženo ve výšce 12000 ft
Zataženo ve výšce 25000 ft

TAF: MMCL 041702Z 0418/0518 24010KT P6SM BKN250 BECMG 0502/0503 00000KT SCT120 OVC250 FM051800 22010KT P6SM BKN120 OVC250

Stav a předpovědi počasí z více než 4 000 letišť (zprávy METAR a TAF).

Červené a žluté tečky na mapě představují dostupné meteorologické stanice.

Když kurzor umístíte na tečku, zobrazí se název stanice.

Pak kliknutím zobrazíte stav a předpověď počasí.

Chcete-li změnit mapu, kliknutím na zelené tlačítko se znaménkem +mapu přiblížíte, kliknutím na zelené tlačítko se znaménkem – mapu oddálíte a kliknutím na zelené šipky přejdete na sousední mapy.


METAR-TAF: